Toms Brook, Virginia
Current Conditions -  °F | °C
As of 7:35 AM on Monday 24 Nov 2014 (Local Time) from KFRR Reporting Station
Overcast Overcast  
Wind Chill: 46°   Ceiling: 700
Heat Index: 48°   Visibility: 1mi
Dew Point: 48°   Wind: 5mph
Humidity: 100%   Direction: 280°W
Pressure: 29.62"   Gusts: NA
Location:  38.95°N, 78.44°W
Report Text: KFRR 241235Z AUTO 28004KT 1SM VV007 09/09 A2962 RMK AO1
Loading
Personal Weather Stations






























Interactive Weather Map New forecast layout! Learn more

10-Day Weather Forecast

Advertisements
Track Severe Weather on mobile